sensor_id;sensor_type;location;lat;lon;timestamp;P1;durP1;ratioP1;P2;durP2;ratioP2
35835;SDS011;21955;50.580;7.228;2022-08-23T00:02:08;5.10;;;2.40;;
35835;SDS011;21955;50.580;7.228;2022-08-23T00:04:36;6.50;;;2.45;;
35835;SDS011;21955;50.580;7.228;2022-08-23T00:07:06;5.45;;;2.40;;
35835;SDS011;21955;50.580;7.228;2022-08-23T00:09:33;4.30;;;1.90;;
35835;SDS011;21955;50.580;7.228;2022-08-23T00:12:09;8.23;;;2.50;;
35835;SDS011;21955;50.580;7.228;2022-08-23T00:14:37;5.00;;;2.23;;
35835;SDS011;21955;50.580;7.228;2022-08-23T00:17:05;6.22;;;2.40;;
35835;SDS011;21955;50.580;7.228;2022-08-23T00:19:33;6.45;;;2.28;;
35835;SDS011;21955;50.580;7.228;2022-08-23T00:22:00;5.35;;;2.30;;
35835;SDS011;21955;50.580;7.228;2022-08-23T00:24:28;7.78;;;2.50;;
35835;SDS011;21955;50.580;7.228;2022-08-23T00:26:59;8.57;;;2.67;;
35835;SDS011;21955;50.580;7.228;2022-08-23T00:29:29;5.70;;;2.47;;
35835;SDS011;21955;50.580;7.228;2022-08-23T00:31:56;6.95;;;2.67;;
35835;SDS011;21955;50.580;7.228;2022-08-23T00:34:24;5.82;;;2.45;;
35835;SDS011;21955;50.580;7.228;2022-08-23T00:36:52;5.40;;;2.47;;
35835;SDS011;21955;50.580;7.228;2022-08-23T00:39:19;6.50;;;2.40;;
35835;SDS011;21955;50.580;7.228;2022-08-23T00:41:48;6.30;;;2.50;;
35835;SDS011;21955;50.580;7.228;2022-08-23T00:44:18;6.50;;;2.70;;
35835;SDS011;21955;50.580;7.228;2022-08-23T00:47:04;6.63;;;2.53;;
35835;SDS011;21955;50.580;7.228;2022-08-23T00:49:51;4.60;;;2.30;;
35835;SDS011;21955;50.580;7.228;2022-08-23T00:52:21;6.85;;;2.20;;
35835;SDS011;21955;50.580;7.228;2022-08-23T00:54:52;4.70;;;2.53;;
35835;SDS011;21955;50.580;7.228;2022-08-23T00:57:21;5.55;;;2.25;;
35835;SDS011;21955;50.580;7.228;2022-08-23T00:59:49;6.28;;;2.50;;
35835;SDS011;21955;50.580;7.228;2022-08-23T01:02:16;5.93;;;2.38;;
35835;SDS011;21955;50.580;7.228;2022-08-23T01:04:44;6.78;;;2.30;;
35835;SDS011;21955;50.580;7.228;2022-08-23T01:07:14;4.80;;;2.35;;
35835;SDS011;21955;50.580;7.228;2022-08-23T01:09:43;6.00;;;2.40;;
35835;SDS011;21955;50.580;7.228;2022-08-23T01:12:12;6.30;;;2.40;;
35835;SDS011;21955;50.580;7.228;2022-08-23T01:14:42;5.50;;;2.27;;
35835;SDS011;21955;50.580;7.228;2022-08-23T01:17:11;5.78;;;2.50;;
35835;SDS011;21955;50.580;7.228;2022-08-23T01:19:42;6.03;;;2.33;;
35835;SDS011;21955;50.580;7.228;2022-08-23T01:22:11;5.78;;;2.50;;
35835;SDS011;21955;50.580;7.228;2022-08-23T01:24:40;5.93;;;2.47;;
35835;SDS011;21955;50.580;7.228;2022-08-23T01:27:08;7.55;;;2.70;;
35835;SDS011;21955;50.580;7.228;2022-08-23T01:29:36;5.97;;;2.60;;
35835;SDS011;21955;50.580;7.228;2022-08-23T01:32:03;6.32;;;2.38;;
35835;SDS011;21955;50.580;7.228;2022-08-23T01:34:30;5.57;;;2.27;;
35835;SDS011;21955;50.580;7.228;2022-08-23T01:36:57;5.28;;;2.35;;
35835;SDS011;21955;50.580;7.228;2022-08-23T01:39:25;5.72;;;2.42;;
35835;SDS011;21955;50.580;7.228;2022-08-23T01:41:54;6.55;;;2.65;;
35835;SDS011;21955;50.580;7.228;2022-08-23T01:44:21;4.90;;;2.55;;
35835;SDS011;21955;50.580;7.228;2022-08-23T01:46:48;6.22;;;2.70;;
35835;SDS011;21955;50.580;7.228;2022-08-23T01:49:15;5.30;;;2.45;;
35835;SDS011;21955;50.580;7.228;2022-08-23T01:51:42;6.28;;;2.55;;
35835;SDS011;21955;50.580;7.228;2022-08-23T01:54:10;4.28;;;2.50;;
35835;SDS011;21955;50.580;7.228;2022-08-23T01:56:37;6.38;;;2.50;;
35835;SDS011;21955;50.580;7.228;2022-08-23T01:59:07;6.88;;;2.67;;
35835;SDS011;21955;50.580;7.228;2022-08-23T02:01:35;7.05;;;2.47;;
35835;SDS011;21955;50.580;7.228;2022-08-23T02:04:02;6.95;;;2.70;;
35835;SDS011;21955;50.580;7.228;2022-08-23T02:06:29;5.47;;;2.40;;
35835;SDS011;21955;50.580;7.228;2022-08-23T02:08:57;5.72;;;2.40;;
35835;SDS011;21955;50.580;7.228;2022-08-23T02:11:29;6.70;;;2.63;;
35835;SDS011;21955;50.580;7.228;2022-08-23T02:13:57;6.13;;;2.77;;
35835;SDS011;21955;50.580;7.228;2022-08-23T02:16:26;5.70;;;2.65;;
35835;SDS011;21955;50.580;7.228;2022-08-23T02:18:54;7.13;;;2.45;;
35835;SDS011;21955;50.580;7.228;2022-08-23T02:21:21;4.70;;;2.70;;
35835;SDS011;21955;50.580;7.228;2022-08-23T02:23:48;7.28;;;2.80;;
35835;SDS011;21955;50.580;7.228;2022-08-23T02:26:16;5.50;;;2.63;;
35835;SDS011;21955;50.580;7.228;2022-08-23T02:28:43;6.00;;;2.65;;
35835;SDS011;21955;50.580;7.228;2022-08-23T02:31:11;6.22;;;2.65;;
35835;SDS011;21955;50.580;7.228;2022-08-23T02:33:39;7.10;;;2.60;;
35835;SDS011;21955;50.580;7.228;2022-08-23T02:36:06;7.35;;;2.80;;
35835;SDS011;21955;50.580;7.228;2022-08-23T02:38:34;6.63;;;2.63;;
35835;SDS011;21955;50.580;7.228;2022-08-23T02:41:01;6.55;;;3.13;;
35835;SDS011;21955;50.580;7.228;2022-08-23T02:43:28;7.05;;;3.20;;
35835;SDS011;21955;50.580;7.228;2022-08-23T02:45:55;7.90;;;2.90;;
35835;SDS011;21955;50.580;7.228;2022-08-23T02:48:22;5.38;;;3.03;;
35835;SDS011;21955;50.580;7.228;2022-08-23T02:50:51;7.00;;;3.10;;
35835;SDS011;21955;50.580;7.228;2022-08-23T02:53:18;6.97;;;2.90;;
35835;SDS011;21955;50.580;7.228;2022-08-23T02:55:45;7.85;;;3.33;;
35835;SDS011;21955;50.580;7.228;2022-08-23T02:58:13;6.90;;;3.20;;
35835;SDS011;21955;50.580;7.228;2022-08-23T03:00:40;6.43;;;3.20;;
35835;SDS011;21955;50.580;7.228;2022-08-23T03:03:07;7.90;;;2.95;;
35835;SDS011;21955;50.580;7.228;2022-08-23T03:05:34;7.03;;;3.28;;
35835;SDS011;21955;50.580;7.228;2022-08-23T03:08:03;7.35;;;3.30;;
35835;SDS011;21955;50.580;7.228;2022-08-23T03:10:30;8.13;;;3.33;;
35835;SDS011;21955;50.580;7.228;2022-08-23T03:12:57;6.78;;;3.30;;
35835;SDS011;21955;50.580;7.228;2022-08-23T03:15:24;6.38;;;3.00;;
35835;SDS011;21955;50.580;7.228;2022-08-23T03:17:51;6.95;;;3.53;;
35835;SDS011;21955;50.580;7.228;2022-08-23T03:20:18;8.23;;;3.28;;
35835;SDS011;21955;50.580;7.228;2022-08-23T03:22:45;8.27;;;3.40;;
35835;SDS011;21955;50.580;7.228;2022-08-23T03:25:14;6.15;;;3.40;;
35835;SDS011;21955;50.580;7.228;2022-08-23T03:27:41;7.20;;;3.30;;
35835;SDS011;21955;50.580;7.228;2022-08-23T03:30:08;7.68;;;3.50;;
35835;SDS011;21955;50.580;7.228;2022-08-23T03:32:36;5.50;;;3.22;;
35835;SDS011;21955;50.580;7.228;2022-08-23T03:35:03;6.28;;;2.92;;
35835;SDS011;21955;50.580;7.228;2022-08-23T03:37:30;6.63;;;3.20;;
35835;SDS011;21955;50.580;7.228;2022-08-23T03:39:58;7.78;;;3.30;;
35835;SDS011;21955;50.580;7.228;2022-08-23T03:42:26;7.23;;;3.03;;
35835;SDS011;21955;50.580;7.228;2022-08-23T03:44:53;7.70;;;3.58;;
35835;SDS011;21955;50.580;7.228;2022-08-23T03:47:20;8.85;;;3.67;;
35835;SDS011;21955;50.580;7.228;2022-08-23T03:49:47;9.23;;;3.10;;
35835;SDS011;21955;50.580;7.228;2022-08-23T03:52:15;5.03;;;2.90;;
35835;SDS011;21955;50.580;7.228;2022-08-23T03:54:42;6.03;;;3.00;;
35835;SDS011;21955;50.580;7.228;2022-08-23T03:57:09;6.88;;;3.40;;
35835;SDS011;21955;50.580;7.228;2022-08-23T03:59:39;5.15;;;2.80;;
35835;SDS011;21955;50.580;7.228;2022-08-23T04:02:07;5.53;;;3.00;;
35835;SDS011;21955;50.580;7.228;2022-08-23T04:04:35;5.95;;;2.75;;
35835;SDS011;21955;50.580;7.228;2022-08-23T04:07:02;6.97;;;2.80;;
35835;SDS011;21955;50.580;7.228;2022-08-23T04:09:29;7.85;;;3.08;;
35835;SDS011;21955;50.580;7.228;2022-08-23T04:11:56;6.32;;;3.00;;
35835;SDS011;21955;50.580;7.228;2022-08-23T04:14:23;5.70;;;3.00;;
35835;SDS011;21955;50.580;7.228;2022-08-23T04:16:52;7.00;;;2.78;;
35835;SDS011;21955;50.580;7.228;2022-08-23T04:19:19;4.43;;;2.90;;
35835;SDS011;21955;50.580;7.228;2022-08-23T04:21:46;5.68;;;2.90;;
35835;SDS011;21955;50.580;7.228;2022-08-23T04:24:14;6.35;;;2.80;;
35835;SDS011;21955;50.580;7.228;2022-08-23T04:26:41;6.88;;;3.35;;
35835;SDS011;21955;50.580;7.228;2022-08-23T04:29:09;6.22;;;3.10;;
35835;SDS011;21955;50.580;7.228;2022-08-23T04:31:40;5.50;;;2.90;;
35835;SDS011;21955;50.580;7.228;2022-08-23T04:34:09;7.00;;;3.00;;
35835;SDS011;21955;50.580;7.228;2022-08-23T04:36:37;6.97;;;3.10;;
35835;SDS011;21955;50.580;7.228;2022-08-23T04:39:04;5.05;;;2.92;;
35835;SDS011;21955;50.580;7.228;2022-08-23T04:41:32;6.93;;;2.92;;
35835;SDS011;21955;50.580;7.228;2022-08-23T04:44:16;6.53;;;2.92;;
35835;SDS011;21955;50.580;7.228;2022-08-23T04:46:43;6.13;;;3.20;;
35835;SDS011;21955;50.580;7.228;2022-08-23T04:49:14;5.47;;;2.80;;
35835;SDS011;21955;50.580;7.228;2022-08-23T04:51:41;5.97;;;2.85;;
35835;SDS011;21955;50.580;7.228;2022-08-23T04:54:08;6.80;;;2.92;;
35835;SDS011;21955;50.580;7.228;2022-08-23T04:56:35;5.65;;;3.00;;
35835;SDS011;21955;50.580;7.228;2022-08-23T04:59:03;6.80;;;3.23;;
35835;SDS011;21955;50.580;7.228;2022-08-23T05:01:30;8.27;;;3.00;;
35835;SDS011;21955;50.580;7.228;2022-08-23T05:03:57;5.93;;;3.22;;
35835;SDS011;21955;50.580;7.228;2022-08-23T05:06:26;8.07;;;3.40;;
35835;SDS011;21955;50.580;7.228;2022-08-23T05:08:53;8.25;;;3.20;;
35835;SDS011;21955;50.580;7.228;2022-08-23T05:11:20;7.60;;;3.45;;
35835;SDS011;21955;50.580;7.228;2022-08-23T05:13:47;7.70;;;3.40;;
35835;SDS011;21955;50.580;7.228;2022-08-23T05:16:15;7.32;;;3.67;;
35835;SDS011;21955;50.580;7.228;2022-08-23T05:18:42;7.68;;;3.70;;
35835;SDS011;21955;50.580;7.228;2022-08-23T05:21:12;6.80;;;3.60;;
35835;SDS011;21955;50.580;7.228;2022-08-23T05:23:40;8.93;;;3.70;;
35835;SDS011;21955;50.580;7.228;2022-08-23T05:26:08;10.10;;;3.63;;
35835;SDS011;21955;50.580;7.228;2022-08-23T05:28:36;7.50;;;3.53;;
35835;SDS011;21955;50.580;7.228;2022-08-23T05:31:06;8.45;;;3.80;;
35835;SDS011;21955;50.580;7.228;2022-08-23T05:33:34;9.25;;;3.83;;
35835;SDS011;21955;50.580;7.228;2022-08-23T05:36:03;7.22;;;3.38;;
35835;SDS011;21955;50.580;7.228;2022-08-23T05:38:31;8.90;;;3.67;;
35835;SDS011;21955;50.580;7.228;2022-08-23T05:40:59;7.20;;;3.70;;
35835;SDS011;21955;50.580;7.228;2022-08-23T05:43:27;7.30;;;3.63;;
35835;SDS011;21955;50.580;7.228;2022-08-23T05:46:01;7.97;;;3.70;;
35835;SDS011;21955;50.580;7.228;2022-08-23T05:48:29;6.25;;;3.53;;
35835;SDS011;21955;50.580;7.228;2022-08-23T05:50:56;7.75;;;3.33;;
35835;SDS011;21955;50.580;7.228;2022-08-23T05:53:23;7.13;;;3.63;;
35835;SDS011;21955;50.580;7.228;2022-08-23T05:55:50;10.05;;;3.60;;
35835;SDS011;21955;50.580;7.228;2022-08-23T05:58:19;10.02;;;3.85;;
35835;SDS011;21955;50.580;7.228;2022-08-23T06:00:46;8.63;;;3.50;;
35835;SDS011;21955;50.580;7.228;2022-08-23T06:03:19;8.75;;;3.28;;
35835;SDS011;21955;50.580;7.228;2022-08-23T06:05:46;7.57;;;3.47;;
35835;SDS011;21955;50.580;7.228;2022-08-23T06:08:13;8.40;;;3.80;;
35835;SDS011;21955;50.580;7.228;2022-08-23T06:10:40;6.30;;;3.30;;
35835;SDS011;21955;50.580;7.228;2022-08-23T06:13:07;9.35;;;3.60;;
35835;SDS011;21955;50.580;7.228;2022-08-23T06:15:36;9.15;;;3.67;;
35835;SDS011;21955;50.580;7.228;2022-08-23T06:18:08;6.40;;;3.63;;
35835;SDS011;21955;50.580;7.228;2022-08-23T06:20:38;9.95;;;3.80;;
35835;SDS011;21955;50.580;7.228;2022-08-23T06:23:06;8.77;;;3.70;;
35835;SDS011;21955;50.580;7.228;2022-08-23T06:25:34;6.38;;;3.42;;
35835;SDS011;21955;50.580;7.228;2022-08-23T06:28:02;9.00;;;3.50;;
35835;SDS011;21955;50.580;7.228;2022-08-23T06:30:29;8.50;;;3.30;;
35835;SDS011;21955;50.580;7.228;2022-08-23T06:32:57;9.15;;;3.05;;
35835;SDS011;21955;50.580;7.228;2022-08-23T06:35:24;10.55;;;3.53;;
35835;SDS011;21955;50.580;7.228;2022-08-23T06:37:52;9.10;;;3.33;;
35835;SDS011;21955;50.580;7.228;2022-08-23T06:40:19;10.10;;;3.63;;
35835;SDS011;21955;50.580;7.228;2022-08-23T06:42:46;7.77;;;3.27;;
35835;SDS011;21955;50.580;7.228;2022-08-23T06:45:13;9.47;;;3.30;;
35835;SDS011;21955;50.580;7.228;2022-08-23T06:47:40;9.40;;;3.40;;
35835;SDS011;21955;50.580;7.228;2022-08-23T06:50:09;10.77;;;3.45;;
35835;SDS011;21955;50.580;7.228;2022-08-23T06:52:36;8.73;;;3.35;;
35835;SDS011;21955;50.580;7.228;2022-08-23T06:55:04;8.98;;;3.33;;
35835;SDS011;21955;50.580;7.228;2022-08-23T06:57:31;11.23;;;3.27;;
35835;SDS011;21955;50.580;7.228;2022-08-23T06:59:58;11.87;;;3.30;;
35835;SDS011;21955;50.580;7.228;2022-08-23T07:02:25;10.98;;;3.28;;
35835;SDS011;21955;50.580;7.228;2022-08-23T07:04:52;9.80;;;3.00;;
35835;SDS011;21955;50.580;7.228;2022-08-23T07:07:21;8.73;;;3.35;;
35835;SDS011;21955;50.580;7.228;2022-08-23T07:09:48;12.65;;;3.30;;
35835;SDS011;21955;50.580;7.228;2022-08-23T07:12:15;10.02;;;3.15;;
35835;SDS011;21955;50.580;7.228;2022-08-23T07:14:43;9.82;;;3.08;;
35835;SDS011;21955;50.580;7.228;2022-08-23T07:17:11;7.25;;;3.10;;
35835;SDS011;21955;50.580;7.228;2022-08-23T07:19:38;7.90;;;3.08;;
35835;SDS011;21955;50.580;7.228;2022-08-23T07:22:07;8.13;;;2.85;;
35835;SDS011;21955;50.580;7.228;2022-08-23T07:24:36;7.43;;;2.65;;
35835;SDS011;21955;50.580;7.228;2022-08-23T07:27:05;7.03;;;2.63;;
35835;SDS011;21955;50.580;7.228;2022-08-23T07:29:34;9.45;;;2.63;;
35835;SDS011;21955;50.580;7.228;2022-08-23T07:32:01;7.75;;;2.60;;
35835;SDS011;21955;50.580;7.228;2022-08-23T07:34:28;7.32;;;2.63;;
35835;SDS011;21955;50.580;7.228;2022-08-23T07:36:55;4.68;;;2.42;;
35835;SDS011;21955;50.580;7.228;2022-08-23T07:39:23;6.93;;;2.90;;
35835;SDS011;21955;50.580;7.228;2022-08-23T07:41:52;9.75;;;2.88;;
35835;SDS011;21955;50.580;7.228;2022-08-23T07:44:19;7.57;;;2.65;;
35835;SDS011;21955;50.580;7.228;2022-08-23T07:46:46;8.73;;;3.10;;
35835;SDS011;21955;50.580;7.228;2022-08-23T07:49:14;11.52;;;2.80;;
35835;SDS011;21955;50.580;7.228;2022-08-23T07:51:43;7.97;;;2.55;;
35835;SDS011;21955;50.580;7.228;2022-08-23T07:54:11;6.47;;;2.47;;
35835;SDS011;21955;50.580;7.228;2022-08-23T07:56:38;7.13;;;2.40;;
35835;SDS011;21955;50.580;7.228;2022-08-23T07:59:07;5.88;;;2.30;;
35835;SDS011;21955;50.580;7.228;2022-08-23T08:01:35;6.47;;;2.50;;
35835;SDS011;21955;50.580;7.228;2022-08-23T08:04:04;6.47;;;2.00;;
35835;SDS011;21955;50.580;7.228;2022-08-23T08:06:33;7.18;;;2.35;;
35835;SDS011;21955;50.580;7.228;2022-08-23T08:09:00;8.07;;;2.75;;
35835;SDS011;21955;50.580;7.228;2022-08-23T08:11:29;6.05;;;2.90;;
35835;SDS011;21955;50.580;7.228;2022-08-23T08:13:56;7.47;;;2.40;;
35835;SDS011;21955;50.580;7.228;2022-08-23T08:16:26;7.60;;;2.37;;
35835;SDS011;21955;50.580;7.228;2022-08-23T08:18:54;8.73;;;2.63;;
35835;SDS011;21955;50.580;7.228;2022-08-23T08:21:21;8.35;;;2.60;;
35835;SDS011;21955;50.580;7.228;2022-08-23T08:23:48;7.75;;;2.20;;
35835;SDS011;21955;50.580;7.228;2022-08-23T08:26:15;5.20;;;2.30;;
35835;SDS011;21955;50.580;7.228;2022-08-23T08:28:43;6.85;;;2.38;;
35835;SDS011;21955;50.580;7.228;2022-08-23T08:31:10;8.30;;;2.25;;
35835;SDS011;21955;50.580;7.228;2022-08-23T08:33:38;7.80;;;2.30;;
35835;SDS011;21955;50.580;7.228;2022-08-23T08:36:06;7.40;;;2.33;;
35835;SDS011;21955;50.580;7.228;2022-08-23T08:38:33;9.35;;;2.60;;
35835;SDS011;21955;50.580;7.228;2022-08-23T08:41:04;8.75;;;2.60;;
35835;SDS011;21955;50.580;7.228;2022-08-23T08:43:38;7.93;;;2.53;;
35835;SDS011;21955;50.580;7.228;2022-08-23T08:46:10;5.57;;;2.30;;
35835;SDS011;21955;50.580;7.228;2022-08-23T08:48:43;7.35;;;2.22;;
35835;SDS011;21955;50.580;7.228;2022-08-23T08:51:15;7.45;;;2.40;;
35835;SDS011;21955;50.580;7.228;2022-08-23T08:53:44;6.43;;;2.40;;
35835;SDS011;21955;50.580;7.228;2022-08-23T08:56:14;6.67;;;2.30;;
35835;SDS011;21955;50.580;7.228;2022-08-23T08:58:46;6.53;;;2.40;;
35835;SDS011;21955;50.580;7.228;2022-08-23T09:01:14;6.15;;;2.30;;
35835;SDS011;21955;50.580;7.228;2022-08-23T09:03:43;8.82;;;2.40;;
35835;SDS011;21955;50.580;7.228;2022-08-23T09:06:17;6.90;;;2.40;;
35835;SDS011;21955;50.580;7.228;2022-08-23T09:08:53;8.27;;;2.23;;
35835;SDS011;21955;50.580;7.228;2022-08-23T09:11:26;12.93;;;2.40;;
35835;SDS011;21955;50.580;7.228;2022-08-23T09:14:03;6.03;;;2.20;;
35835;SDS011;21955;50.580;7.228;2022-08-23T09:16:37;6.68;;;2.35;;
35835;SDS011;21955;50.580;7.228;2022-08-23T09:19:07;7.18;;;2.10;;
35835;SDS011;21955;50.580;7.228;2022-08-23T09:21:37;6.70;;;2.47;;
35835;SDS011;21955;50.580;7.228;2022-08-23T09:24:07;7.47;;;2.50;;
35835;SDS011;21955;50.580;7.228;2022-08-23T09:26:34;6.20;;;2.40;;
35835;SDS011;21955;50.580;7.228;2022-08-23T09:29:02;6.05;;;2.75;;
35835;SDS011;21955;50.580;7.228;2022-08-23T09:31:41;9.10;;;2.60;;
35835;SDS011;21955;50.580;7.228;2022-08-23T09:34:09;6.25;;;2.38;;
35835;SDS011;21955;50.580;7.228;2022-08-23T09:36:41;7.60;;;2.67;;
35835;SDS011;21955;50.580;7.228;2022-08-23T09:39:23;6.78;;;2.50;;
35835;SDS011;21955;50.580;7.228;2022-08-23T09:41:50;4.97;;;2.50;;
35835;SDS011;21955;50.580;7.228;2022-08-23T09:44:28;5.63;;;2.40;;
35835;SDS011;21955;50.580;7.228;2022-08-23T09:47:02;6.15;;;2.47;;
35835;SDS011;21955;50.580;7.228;2022-08-23T09:49:32;7.25;;;2.35;;
35835;SDS011;21955;50.580;7.228;2022-08-23T09:51:59;5.03;;;2.40;;
35835;SDS011;21955;50.580;7.228;2022-08-23T09:54:28;9.75;;;2.85;;
35835;SDS011;21955;50.580;7.228;2022-08-23T09:56:56;7.25;;;2.50;;
35835;SDS011;21955;50.580;7.228;2022-08-23T09:59:30;8.87;;;2.63;;
35835;SDS011;21955;50.580;7.228;2022-08-23T10:02:00;8.05;;;2.75;;
35835;SDS011;21955;50.580;7.228;2022-08-23T10:04:29;6.37;;;2.40;;
35835;SDS011;21955;50.580;7.228;2022-08-23T10:06:58;5.20;;;2.17;;
35835;SDS011;21955;50.580;7.228;2022-08-23T10:09:27;7.65;;;2.30;;
35835;SDS011;21955;50.580;7.228;2022-08-23T10:11:55;7.87;;;2.40;;
35835;SDS011;21955;50.580;7.228;2022-08-23T10:14:23;8.80;;;2.47;;
35835;SDS011;21955;50.580;7.228;2022-08-23T10:16:54;6.43;;;2.17;;
35835;SDS011;21955;50.580;7.228;2022-08-23T10:19:24;6.67;;;2.37;;
35835;SDS011;21955;50.580;7.228;2022-08-23T10:21:56;6.27;;;2.20;;
35835;SDS011;21955;50.580;7.228;2022-08-23T10:24:44;6.10;;;2.22;;
35835;SDS011;21955;50.580;7.228;2022-08-23T10:27:15;5.28;;;2.30;;
35835;SDS011;21955;50.580;7.228;2022-08-23T10:30:04;4.80;;;1.95;;
35835;SDS011;21955;50.580;7.228;2022-08-23T10:32:35;7.35;;;2.20;;
35835;SDS011;21955;50.580;7.228;2022-08-23T10:35:18;6.20;;;2.03;;
35835;SDS011;21955;50.580;7.228;2022-08-23T10:37:51;6.68;;;2.03;;
35835;SDS011;21955;50.580;7.228;2022-08-23T10:40:24;3.95;;;2.10;;
35835;SDS011;21955;50.580;7.228;2022-08-23T10:42:56;5.60;;;1.93;;
35835;SDS011;21955;50.580;7.228;2022-08-23T10:45:28;3.67;;;2.07;;
35835;SDS011;21955;50.580;7.228;2022-08-23T10:47:59;7.27;;;2.10;;
35835;SDS011;21955;50.580;7.228;2022-08-23T10:50:35;4.07;;;2.20;;
35835;SDS011;21955;50.580;7.228;2022-08-23T10:53:06;3.17;;;1.83;;
35835;SDS011;21955;50.580;7.228;2022-08-23T10:55:38;5.97;;;1.92;;
35835;SDS011;21955;50.580;7.228;2022-08-23T10:58:20;5.18;;;2.05;;
35835;SDS011;21955;50.580;7.228;2022-08-23T11:00:48;8.23;;;1.98;;
35835;SDS011;21955;50.580;7.228;2022-08-23T11:03:18;4.83;;;2.20;;
35835;SDS011;21955;50.580;7.228;2022-08-23T11:08:31;5.55;;;2.00;;
35835;SDS011;21955;50.580;7.228;2022-08-23T11:11:00;7.35;;;2.10;;
35835;SDS011;21955;50.580;7.228;2022-08-23T11:13:27;4.85;;;2.08;;
35835;SDS011;21955;50.580;7.228;2022-08-23T11:15:56;8.13;;;1.88;;
35835;SDS011;21955;50.580;7.228;2022-08-23T11:18:42;6.28;;;2.20;;
35835;SDS011;21955;50.580;7.228;2022-08-23T11:21:11;7.93;;;2.13;;
35835;SDS011;21955;50.580;7.228;2022-08-23T11:29:33;8.50;;;2.30;;
35835;SDS011;21955;50.580;7.228;2022-08-23T11:32:02;5.68;;;1.98;;
35835;SDS011;21955;50.580;7.228;2022-08-23T11:34:32;6.53;;;1.90;;
35835;SDS011;21955;50.580;7.228;2022-08-23T11:40:00;4.85;;;1.92;;
35835;SDS011;21955;50.580;7.228;2022-08-23T11:42:33;5.00;;;1.83;;
35835;SDS011;21955;50.580;7.228;2022-08-23T11:45:21;7.88;;;2.17;;
35835;SDS011;21955;50.580;7.228;2022-08-23T11:47:50;5.28;;;1.98;;
35835;SDS011;21955;50.580;7.228;2022-08-23T11:50:31;7.50;;;1.92;;
35835;SDS011;21955;50.580;7.228;2022-08-23T11:53:05;7.80;;;2.45;;
35835;SDS011;21955;50.580;7.228;2022-08-23T11:55:38;5.82;;;2.20;;
35835;SDS011;21955;50.580;7.228;2022-08-23T11:58:14;9.88;;;2.72;;
35835;SDS011;21955;50.580;7.228;2022-08-23T12:00:51;8.80;;;2.10;;
35835;SDS011;21955;50.580;7.228;2022-08-23T12:03:20;6.45;;;2.10;;
35835;SDS011;21955;50.580;7.228;2022-08-23T12:06:10;6.28;;;2.45;;
35835;SDS011;21955;50.580;7.228;2022-08-23T12:12:04;4.93;;;1.90;;
35835;SDS011;21955;50.580;7.228;2022-08-23T12:14:31;5.22;;;2.00;;
35835;SDS011;21955;50.580;7.228;2022-08-23T12:17:03;3.45;;;1.85;;
35835;SDS011;21955;50.580;7.228;2022-08-23T12:19:31;6.43;;;2.00;;
35835;SDS011;21955;50.580;7.228;2022-08-23T12:22:04;5.38;;;1.90;;
35835;SDS011;21955;50.580;7.228;2022-08-23T12:24:41;5.40;;;2.03;;
35835;SDS011;21955;50.580;7.228;2022-08-23T12:27:09;4.85;;;1.95;;
35835;SDS011;21955;50.580;7.228;2022-08-23T12:29:50;4.13;;;1.90;;
35835;SDS011;21955;50.580;7.228;2022-08-23T12:32:20;5.53;;;1.88;;
35835;SDS011;21955;50.580;7.228;2022-08-23T12:34:52;7.47;;;2.13;;
35835;SDS011;21955;50.580;7.228;2022-08-23T12:37:28;8.93;;;1.87;;
35835;SDS011;21955;50.580;7.228;2022-08-23T12:39:58;6.32;;;1.80;;
35835;SDS011;21955;50.580;7.228;2022-08-23T12:42:27;6.03;;;1.80;;
35835;SDS011;21955;50.580;7.228;2022-08-23T12:44:58;6.03;;;1.60;;
35835;SDS011;21955;50.580;7.228;2022-08-23T12:47:27;2.42;;;1.45;;
35835;SDS011;21955;50.580;7.228;2022-08-23T12:49:55;4.80;;;1.70;;
35835;SDS011;21955;50.580;7.228;2022-08-23T12:52:25;6.35;;;1.60;;
35835;SDS011;21955;50.580;7.228;2022-08-23T12:54:52;8.68;;;1.70;;
35835;SDS011;21955;50.580;7.228;2022-08-23T12:57:29;5.43;;;1.70;;
35835;SDS011;21955;50.580;7.228;2022-08-23T12:59:57;6.75;;;1.70;;
35835;SDS011;21955;50.580;7.228;2022-08-23T13:02:29;4.22;;;1.58;;
35835;SDS011;21955;50.580;7.228;2022-08-23T13:04:58;5.57;;;2.10;;
35835;SDS011;21955;50.580;7.228;2022-08-23T13:07:28;4.30;;;1.70;;
35835;SDS011;21955;50.580;7.228;2022-08-23T13:09:56;5.97;;;1.63;;
35835;SDS011;21955;50.580;7.228;2022-08-23T13:12:23;5.07;;;1.60;;
35835;SDS011;21955;50.580;7.228;2022-08-23T13:14:52;7.30;;;2.00;;
35835;SDS011;21955;50.580;7.228;2022-08-23T13:17:20;5.47;;;1.60;;
35835;SDS011;21955;50.580;7.228;2022-08-23T13:19:49;5.88;;;1.70;;
35835;SDS011;21955;50.580;7.228;2022-08-23T13:22:21;6.13;;;1.73;;
35835;SDS011;21955;50.580;7.228;2022-08-23T13:24:59;6.00;;;1.60;;
35835;SDS011;21955;50.580;7.228;2022-08-23T13:27:27;6.93;;;1.80;;
35835;SDS011;21955;50.580;7.228;2022-08-23T13:29:56;3.78;;;1.40;;
35835;SDS011;21955;50.580;7.228;2022-08-23T13:32:25;5.10;;;1.67;;
35835;SDS011;21955;50.580;7.228;2022-08-23T13:34:54;5.32;;;1.30;;
35835;SDS011;21955;50.580;7.228;2022-08-23T13:37:42;6.53;;;1.65;;
35835;SDS011;21955;50.580;7.228;2022-08-23T13:40:12;3.65;;;1.15;;
35835;SDS011;21955;50.580;7.228;2022-08-23T13:42:42;2.80;;;1.33;;
35835;SDS011;21955;50.580;7.228;2022-08-23T13:45:13;4.47;;;1.50;;
35835;SDS011;21955;50.580;7.228;2022-08-23T13:47:43;5.82;;;1.50;;
35835;SDS011;21955;50.580;7.228;2022-08-23T13:50:15;3.20;;;1.27;;
35835;SDS011;21955;50.580;7.228;2022-08-23T13:52:42;3.15;;;1.38;;
35835;SDS011;21955;50.580;7.228;2022-08-23T13:55:10;2.92;;;1.23;;
35835;SDS011;21955;50.580;7.228;2022-08-23T13:57:37;4.55;;;1.40;;
35835;SDS011;21955;50.580;7.228;2022-08-23T14:00:06;2.92;;;1.40;;
35835;SDS011;21955;50.580;7.228;2022-08-23T14:02:35;2.88;;;1.50;;
35835;SDS011;21955;50.580;7.228;2022-08-23T14:05:03;2.47;;;1.38;;
35835;SDS011;21955;50.580;7.228;2022-08-23T14:07:31;4.78;;;1.40;;
35835;SDS011;21955;50.580;7.228;2022-08-23T14:09:58;3.00;;;1.30;;
35835;SDS011;21955;50.580;7.228;2022-08-23T14:12:26;4.05;;;1.40;;
35835;SDS011;21955;50.580;7.228;2022-08-23T14:14:54;3.70;;;1.60;;
35835;SDS011;21955;50.580;7.228;2022-08-23T14:17:22;3.95;;;1.20;;
35835;SDS011;21955;50.580;7.228;2022-08-23T14:19:49;3.08;;;1.27;;
35835;SDS011;21955;50.580;7.228;2022-08-23T14:22:16;2.92;;;1.10;;
35835;SDS011;21955;50.580;7.228;2022-08-23T14:24:45;2.50;;;1.13;;
35835;SDS011;21955;50.580;7.228;2022-08-23T14:27:12;4.55;;;1.33;;
35835;SDS011;21955;50.580;7.228;2022-08-23T14:29:39;3.17;;;1.30;;
35835;SDS011;21955;50.580;7.228;2022-08-23T14:32:06;2.35;;;1.25;;
35835;SDS011;21955;50.580;7.228;2022-08-23T14:34:33;1.75;;;1.20;;
35835;SDS011;21955;50.580;7.228;2022-08-23T14:37:01;2.88;;;1.38;;
35835;SDS011;21955;50.580;7.228;2022-08-23T14:39:28;3.53;;;1.00;;
35835;SDS011;21955;50.580;7.228;2022-08-23T14:41:56;5.68;;;1.50;;
35835;SDS011;21955;50.580;7.228;2022-08-23T14:44:23;3.30;;;1.30;;
35835;SDS011;21955;50.580;7.228;2022-08-23T14:46:51;2.05;;;1.10;;
35835;SDS011;21955;50.580;7.228;2022-08-23T14:49:18;3.85;;;1.20;;
35835;SDS011;21955;50.580;7.228;2022-08-23T14:51:45;5.30;;;1.50;;
35835;SDS011;21955;50.580;7.228;2022-08-23T14:54:15;3.97;;;1.30;;
35835;SDS011;21955;50.580;7.228;2022-08-23T14:56:43;3.58;;;1.50;;
35835;SDS011;21955;50.580;7.228;2022-08-23T14:59:11;1.83;;;1.10;;
35835;SDS011;21955;50.580;7.228;2022-08-23T15:01:38;3.07;;;0.93;;
35835;SDS011;21955;50.580;7.228;2022-08-23T15:04:06;2.80;;;0.90;;
35835;SDS011;21955;50.580;7.228;2022-08-23T15:06:33;2.20;;;0.98;;
35835;SDS011;21955;50.580;7.228;2022-08-23T15:09:00;2.60;;;1.10;;
35835;SDS011;21955;50.580;7.228;2022-08-23T15:11:27;4.70;;;1.27;;
35835;SDS011;21955;50.580;7.228;2022-08-23T15:13:54;2.03;;;1.10;;
35835;SDS011;21955;50.580;7.228;2022-08-23T15:16:25;2.10;;;1.20;;